Time;durP1;ratioP1;P1;durP2;ratioP2;P2;SDS_P1;SDS_P2;PMS_P1;PMS_P2;Temp;Humidity;BMP_temperature;BMP_pressure;BME280_temperature;BME280_humidity;BME280_pressure;Samples;Min_cycle;Max_cycle;Signal;HPM_P1;HPM_P2
2022/01/21 00:01:33;;;;;;;5.33;0.93;;;26.00;99.90;;;;;;4963230;28;20186;-65
2022/01/21 00:04:01;;;;;;;3.80;1.03;;;26.00;99.90;;;;;;4972706;28;20179;-65
2022/01/21 00:06:28;;;;;;;5.30;1.13;;;26.40;99.90;;;;;;4972024;28;20215;-66
2022/01/21 00:08:56;;;;;;;5.40;1.50;;;26.80;99.90;;;;;;4972197;28;20666;-65
2022/01/21 00:11:25;;;;;;;2.80;1.00;;;26.70;99.90;;;;;;4970689;28;20281;-64
2022/01/21 00:13:53;;;;;;;1.97;0.70;;;26.20;99.90;;;;;;4972552;28;20178;-67
2022/01/21 00:16:22;;;;;;;3.73;0.90;;;26.10;99.90;;;;;;4971059;28;20186;-66
2022/01/21 00:19:02;;;;;;;2.77;0.80;;;26.10;99.90;;;;;;4972153;28;20238;-66
2022/01/21 00:32:35;;;;;;;4.30;1.00;;;26.60;99.90;;;;;;4975834;28;20199;-64
2022/01/21 00:35:03;;;;;;;3.10;1.10;;;25.30;99.90;;;;;;4975885;28;20191;-66
2022/01/21 00:37:30;;;;;;;4.30;1.20;;;25.30;99.90;;;;;;4975895;28;20179;-65
2022/01/21 00:40:00;;;;;;;8.97;1.43;;;25.40;99.90;;;;;;4975898;28;20285;-65
2022/01/21 00:45:21;;;;;;;7.87;1.83;;;25.00;99.90;;;;;;4948154;28;20247;-64
2022/01/21 00:47:48;;;;;;;8.00;1.50;;;25.20;99.90;;;;;;4956476;28;20180;-64
2022/01/21 00:50:16;;;;;;;4.90;1.40;;;25.20;99.90;;;;;;4959421;28;20765;-64
2022/01/21 00:52:44;;;;;;;5.87;1.53;;;26.00;99.90;;;;;;4975596;28;20187;-66
2022/01/21 00:55:12;;;;;;;7.10;1.40;;;26.50;99.90;;;;;;4975647;28;20708;-64
2022/01/21 00:57:39;;;;;;;5.57;1.30;;;26.80;99.90;;;;;;4989555;28;20212;-66
2022/01/21 01:00:10;;;;;;;4.80;1.40;;;26.30;99.90;;;;;;4995111;28;20325;-65
2022/01/21 01:02:37;;;;;;;9.23;1.40;;;26.50;99.90;;;;;;4978666;28;20202;-65
2022/01/21 01:05:07;;;;;;;5.13;1.20;;;26.10;99.90;;;;;;4975171;28;20259;-65
2022/01/21 01:07:35;;;;;;;5.83;1.00;;;26.00;99.90;;;;;;4975086;28;20191;-65
2022/01/21 01:10:05;;;;;;;7.13;1.10;;;26.00;99.90;;;;;;4975333;28;20190;-65
2022/01/21 01:20:30;;;;;;;7.00;1.00;;;26.40;99.90;;;;;;4966052;28;20222;-68
2022/01/21 01:23:20;;;;;;;4.70;1.30;;;26.80;99.90;;;;;;4974430;28;20620;-67
2022/01/21 01:28:29;;;;;;;8.23;1.23;;;27.30;99.90;;;;;;4974836;28;20265;-68
2022/01/21 01:30:57;;;;;;;7.67;1.37;;;27.30;99.90;;;;;;4974689;28;20282;-68
2022/01/21 01:33:33;;;;;;;3.90;1.00;;;27.30;99.90;;;;;;4974462;28;20239;-68
2022/01/21 01:36:01;;;;;;;3.20;1.20;;;27.10;99.90;;;;;;4974611;28;20195;-67
2022/01/21 01:39:03;;;;;;;4.23;1.03;;;27.30;99.90;;;;;;4974481;28;20194;-68
2022/01/21 01:41:38;;;;;;;4.50;0.90;;;27.30;99.90;;;;;;4973361;28;20186;-65
2022/01/21 01:49:38;;;;;;;10.10;1.60;;;26.50;99.90;;;;;;4972897;28;20265;-66
2022/01/21 01:52:10;;;;;;;13.37;1.87;;;26.30;99.90;;;;;;4973247;28;20266;-65
2022/01/21 01:54:41;;;;;;;6.67;1.20;;;27.20;99.90;;;;;;4973977;28;20630;-66
2022/01/21 01:57:08;;;;;;;5.27;1.20;;;26.90;99.90;;;;;;4974136;28;20653;-66
2022/01/21 01:59:36;;;;;;;6.43;1.83;;;26.40;99.90;;;;;;4973760;28;20186;-66
2022/01/21 02:02:09;;;;;;;5.73;1.60;;;26.60;99.90;;;;;;4970697;28;20191;-65
2022/01/21 02:04:37;;;;;;;7.53;1.23;;;26.00;99.90;;;;;;4977546;28;20396;-68
2022/01/21 02:07:05;;;;;;;5.23;1.23;;;26.10;99.90;;;;;;4974208;28;20617;-67
2022/01/21 02:09:33;;;;;;;5.33;1.03;;;26.70;99.90;;;;;;4973479;28;20191;-67
2022/01/21 02:12:01;;;;;;;6.97;1.10;;;26.40;99.90;;;;;;4969837;28;20228;-67
2022/01/21 02:14:36;;;;;;;7.97;2.03;;;26.10;99.90;;;;;;4974102;28;20556;-68
2022/01/21 02:17:16;;;;;;;6.27;1.47;;;26.20;99.90;;;;;;4972961;28;20247;-68
2022/01/21 02:22:36;;;;;;;7.57;1.80;;;26.10;99.90;;;;;;4973395;28;20190;-66
2022/01/21 02:25:19;;;;;;;6.90;1.50;;;26.60;99.90;;;;;;4973286;28;20215;-67
2022/01/21 02:27:49;;;;;;;4.83;1.50;;;26.70;99.90;;;;;;4973747;28;20253;-67
2022/01/21 02:30:22;;;;;;;10.30;2.03;;;26.60;99.90;;;;;;4973858;28;20237;-67
2022/01/21 02:32:51;;;;;;;8.00;1.70;;;26.80;99.90;;;;;;4973474;28;20187;-67
2022/01/21 02:35:20;;;;;;;4.33;1.20;;;26.90;99.90;;;;;;4973757;28;20195;-65
2022/01/21 02:37:48;;;;;;;5.53;1.13;;;26.80;99.90;;;;;;4973839;28;20580;-66
2022/01/21 02:40:18;;;;;;;8.27;1.87;;;26.70;99.90;;;;;;4972317;28;20836;-65
2022/01/21 02:42:45;;;;;;;8.17;1.90;;;26.10;99.90;;;;;;4972528;28;20648;-66
2022/01/21 02:45:14;;;;;;;12.83;1.77;;;25.70;99.90;;;;;;4973482;28;20226;-66
2022/01/21 02:47:44;;;;;;;7.50;1.53;;;25.30;99.90;;;;;;4973568;28;20449;-65
2022/01/21 02:50:13;;;;;;;9.97;1.50;;;25.00;99.90;;;;;;4973223;28;20218;-65
2022/01/21 02:52:54;;;;;;;11.10;1.60;;;25.00;99.90;;;;;;4972920;28;20579;-67
2022/01/21 02:55:22;;;;;;;8.83;1.90;;;25.00;99.90;;;;;;4973520;28;20222;-67
2022/01/21 02:57:50;;;;;;;6.67;1.13;;;24.80;99.90;;;;;;4973289;28;20187;-64
2022/01/21 03:00:17;;;;;;;11.37;1.77;;;24.50;99.90;;;;;;4973243;28;20601;-66
2022/01/21 03:02:45;;;;;;;5.10;1.50;;;24.40;99.90;;;;;;4972765;28;20703;-66
2022/01/21 03:05:15;;;;;;;9.50;2.13;;;24.30;99.90;;;;;;4972882;28;20277;-66
2022/01/21 03:07:43;;;;;;;10.90;1.87;;;24.20;99.90;;;;;;4973162;28;20194;-66
2022/01/21 03:10:11;;;;;;;11.27;2.03;;;24.20;99.90;;;;;;4973064;28;20249;-66
2022/01/21 03:12:39;;;;;;;13.83;1.60;;;24.40;99.90;;;;;;4972989;28;20187;-67
2022/01/21 03:15:07;;;;;;;7.97;1.90;;;24.40;99.90;;;;;;4972485;28;20244;-66
2022/01/21 03:17:35;;;;;;;5.73;1.40;;;24.40;99.90;;;;;;4972381;28;20190;-65
2022/01/21 03:20:05;;;;;;;5.70;1.50;;;24.40;99.90;;;;;;4972884;28;20360;-66
2022/01/21 03:22:33;;;;;;;10.83;1.70;;;24.20;99.90;;;;;;4972306;28;20738;-66
2022/01/21 03:25:01;;;;;;;9.10;1.93;;;24.10;99.90;;;;;;4972316;28;20668;-65
2022/01/21 03:27:28;;;;;;;8.50;1.73;;;24.20;99.90;;;;;;4972881;28;20183;-66
2022/01/21 03:29:57;;;;;;;13.00;1.80;;;24.30;99.90;;;;;;4979758;28;20544;-66
2022/01/21 03:32:25;;;;;;;9.57;2.27;;;24.40;99.90;;;;;;4984914;28;20194;-68
2022/01/21 03:34:52;;;;;;;13.43;2.17;;;24.40;99.90;;;;;;4973017;28;20179;-66
2022/01/21 03:37:20;;;;;;;6.43;1.60;;;24.30;99.90;;;;;;4971798;28;20186;-66
2022/01/21 03:39:47;;;;;;;7.93;2.07;;;24.30;99.90;;;;;;4972290;28;20218;-64
2022/01/21 03:42:14;;;;;;;6.33;1.53;;;24.20;99.90;;;;;;4972267;28;20948;-64
2022/01/21 03:44:42;;;;;;;6.60;1.40;;;24.10;99.90;;;;;;4972631;28;20203;-66
2022/01/21 03:47:09;;;;;;;7.37;1.57;;;24.00;99.90;;;;;;4972317;28;20263;-64
2022/01/21 03:49:40;;;;;;;8.87;2.17;;;23.90;99.90;;;;;;4972880;28;20185;-64
2022/01/21 03:52:08;;;;;;;8.73;1.70;;;24.10;99.90;;;;;;4972496;28;20686;-66
2022/01/21 03:54:36;;;;;;;8.20;1.83;;;24.10;99.90;;;;;;4972566;28;20190;-67
2022/01/21 03:57:06;;;;;;;7.43;1.60;;;24.20;99.90;;;;;;4972799;28;20205;-66
2022/01/21 03:59:33;;;;;;;9.73;1.60;;;24.20;99.90;;;;;;4972901;28;20774;-66
2022/01/21 04:02:04;;;;;;;8.10;1.60;;;24.20;99.90;;;;;;4972564;28;20208;-67
2022/01/21 04:04:31;;;;;;;7.77;1.40;;;24.30;99.90;;;;;;4974680;28;20784;-66
2022/01/21 04:06:59;;;;;;;4.50;1.03;;;24.40;99.90;;;;;;4976264;28;20581;-66
2022/01/21 04:09:26;;;;;;;11.77;1.80;;;24.30;99.90;;;;;;4976707;28;20193;-66
2022/01/21 04:11:53;;;;;;;7.33;1.57;;;24.20;99.90;;;;;;4976163;28;20199;-66
2022/01/21 04:14:21;;;;;;;5.10;1.17;;;23.80;99.90;;;;;;4976068;28;20179;-67
2022/01/21 04:16:48;;;;;;;4.47;1.67;;;23.40;99.90;;;;;;4976170;28;20556;-67
2022/01/21 04:19:15;;;;;;;14.73;1.97;;;23.20;99.90;;;;;;4976031;28;20207;-66
2022/01/21 04:21:43;;;;;;;7.10;1.70;;;23.10;99.90;;;;;;4976124;28;20201;-64
2022/01/21 04:24:10;;;;;;;9.37;1.77;;;23.10;99.90;;;;;;4976041;28;20187;-66
2022/01/21 04:26:38;;;;;;;5.93;1.50;;;23.30;99.90;;;;;;4974744;28;20230;-66
2022/01/21 04:29:05;;;;;;;9.30;2.23;;;23.60;99.90;;;;;;4976071;28;20266;-67
2022/01/21 04:31:32;;;;;;;8.83;1.83;;;23.70;99.90;;;;;;4975905;28;20707;-67
2022/01/21 04:34:00;;;;;;;8.27;1.43;;;23.80;99.90;;;;;;4975929;28;20206;-64
2022/01/21 04:36:27;;;;;;;7.83;1.63;;;23.80;99.90;;;;;;4975159;28;20194;-65
2022/01/21 04:38:58;;;;;;;8.03;1.50;;;23.70;99.90;;;;;;4975594;28;20269;-65
2022/01/21 04:49:32;;;;;;;14.83;1.73;;;23.70;99.90;;;;;;4956442;29;20195;-65
2022/01/21 04:52:02;;;;;;;8.10;1.60;;;23.70;99.90;;;;;;4956467;28;20176;-66
2022/01/21 04:54:36;;;;;;;9.20;2.00;;;24.00;99.90;;;;;;4967970;28;20276;-65
2022/01/21 04:57:05;;;;;;;7.13;1.47;;;24.10;99.90;;;;;;4975524;28;20265;-66
2022/01/21 04:59:33;;;;;;;8.00;1.70;;;24.10;99.90;;;;;;4975576;28;20175;-64
2022/01/21 05:02:01;;;;;;;8.23;1.43;;;24.00;99.90;;;;;;4975376;28;20178;-64
2022/01/21 05:04:28;;;;;;;7.53;1.60;;;23.80;99.90;;;;;;4974960;28;20608;-66
2022/01/21 05:06:56;;;;;;;6.17;1.57;;;23.80;99.90;;;;;;4974071;28;20200;-65
2022/01/21 05:09:30;;;;;;;5.17;1.03;;;23.70;99.90;;;;;;4975083;28;20781;-65
2022/01/21 05:11:58;;;;;;;8.97;1.47;;;23.80;99.90;;;;;;4975410;28;20727;-65
2022/01/21 05:14:41;;;;;;;8.53;1.03;;;23.90;99.90;;;;;;4974686;28;20187;-65
2022/01/21 05:17:11;;;;;;;4.67;1.27;;;23.80;99.90;;;;;;4975211;28;20189;-68
2022/01/21 05:19:38;;;;;;;10.60;1.40;;;23.70;99.90;;;;;;4975209;28;20217;-67
2022/01/21 05:22:06;;;;;;;9.97;1.70;;;23.60;99.90;;;;;;4975210;28;20190;-69
2022/01/21 05:24:33;;;;;;;9.03;1.60;;;22.90;99.90;;;;;;4974699;28;20215;-65
2022/01/21 05:27:01;;;;;;;7.80;1.80;;;22.60;99.90;;;;;;4975113;28;20226;-65
2022/01/21 05:29:30;;;;;;;5.90;1.70;;;22.60;99.90;;;;;;4973638;28;20533;-66
2022/01/21 05:31:58;;;;;;;4.73;1.43;;;22.70;99.90;;;;;;4974747;28;20190;-65
2022/01/21 05:34:26;;;;;;;8.53;1.77;;;22.80;99.90;;;;;;4974700;28;20697;-67
2022/01/21 05:36:54;;;;;;;6.67;1.77;;;23.00;99.90;;;;;;4974498;28;20365;-65
2022/01/21 05:39:22;;;;;;;6.97;0.90;;;23.10;99.90;;;;;;4974989;28;20637;-67
2022/01/21 05:41:52;;;;;;;5.10;1.00;;;22.80;99.90;;;;;;4974642;28;20629;-68
2022/01/21 05:47:00;;;;;;;4.03;1.00;;;22.90;99.90;;;;;;4974689;28;20218;-66
2022/01/21 05:49:30;;;;;;;5.40;1.17;;;23.10;99.90;;;;;;4974395;28;20194;-65
2022/01/21 05:52:04;;;;;;;6.43;1.37;;;23.10;99.90;;;;;;4974751;28;20179;-67
2022/01/21 05:54:32;;;;;;;4.10;1.00;;;23.00;99.90;;;;;;4977582;28;20648;-66
2022/01/21 05:57:04;;;;;;;6.17;1.27;;;22.80;99.90;;;;;;4973050;28;20187;-68
2022/01/21 05:59:32;;;;;;;6.00;0.90;;;22.40;99.90;;;;;;4974460;28;20179;-67
2022/01/21 06:02:00;;;;;;;3.70;1.10;;;22.40;99.90;;;;;;4954996;28;20192;-66
2022/01/21 06:04:28;;;;;;;7.30;1.33;;;22.30;99.90;;;;;;4970679;28;20660;-67
2022/01/21 06:06:55;;;;;;;5.73;1.00;;;22.40;99.90;;;;;;4974147;28;20193;-69
2022/01/21 06:09:23;;;;;;;5.73;1.37;;;22.60;99.90;;;;;;4974303;28;20176;-69
2022/01/21 06:11:51;;;;;;;5.87;1.80;;;22.40;99.90;;;;;;4974283;28;20278;-69
2022/01/21 06:14:18;;;;;;;7.90;1.50;;;22.10;99.90;;;;;;4972934;28;20183;-69
2022/01/21 06:16:46;;;;;;;8.57;1.50;;;22.20;99.90;;;;;;4972951;28;20656;-67
2022/01/21 06:19:13;;;;;;;6.17;1.63;;;22.40;99.90;;;;;;4974084;28;20194;-67
2022/01/21 06:21:40;;;;;;;6.30;2.03;;;22.40;99.90;;;;;;4974085;28;20647;-67
2022/01/21 06:24:08;;;;;;;5.07;1.30;;;22.40;99.90;;;;;;4973458;28;20192;-65
2022/01/21 06:26:36;;;;;;;4.70;1.33;;;22.60;99.90;;;;;;4973412;28;20297;-66
2022/01/21 06:29:04;;;;;;;5.70;1.47;;;22.60;99.90;;;;;;4973625;28;20208;-65
2022/01/21 06:31:32;;;;;;;8.33;1.50;;;22.20;99.90;;;;;;4974019;28;20325;-67
2022/01/21 06:34:00;;;;;;;6.23;1.70;;;21.90;99.90;;;;;;4973670;28;20192;-68
2022/01/21 06:36:28;;;;;;;4.60;1.23;;;21.80;99.90;;;;;;4973800;28;20573;-65
2022/01/21 06:38:56;;;;;;;5.73;1.30;;;21.70;99.90;;;;;;4973459;28;20242;-66
2022/01/21 06:41:24;;;;;;;4.90;1.57;;;21.50;99.90;;;;;;4973640;28;20191;-66
2022/01/21 06:43:51;;;;;;;3.97;1.50;;;21.60;99.90;;;;;;4972186;28;20238;-68
2022/01/21 06:46:18;;;;;;;11.50;2.13;;;21.80;99.90;;;;;;4973396;28;20582;-65
2022/01/21 06:48:46;;;;;;;10.63;1.90;;;21.90;99.90;;;;;;4973480;28;20179;-64
2022/01/21 06:51:13;;;;;;;5.93;1.87;;;21.90;99.90;;;;;;4971910;28;20244;-65
2022/01/21 06:53:41;;;;;;;5.27;1.50;;;21.90;99.90;;;;;;4971605;28;20204;-65
2022/01/21 06:56:08;;;;;;;9.80;1.67;;;22.00;99.90;;;;;;4973452;28;20263;-66
2022/01/21 06:58:35;;;;;;;10.67;2.10;;;22.00;99.90;;;;;;4972987;28;20213;-69
2022/01/21 07:01:03;;;;;;;8.77;1.63;;;22.10;99.90;;;;;;4972889;28;20181;-65
2022/01/21 07:03:30;;;;;;;9.93;1.50;;;22.30;99.90;;;;;;4971503;28;20187;-67
2022/01/21 07:05:59;;;;;;;5.77;1.50;;;22.30;99.90;;;;;;4973551;28;20711;-67
2022/01/21 07:08:27;;;;;;;11.70;1.63;;;22.20;99.90;;;;;;4973472;28;20178;-65
2022/01/21 07:10:55;;;;;;;12.27;2.07;;;22.30;99.90;;;;;;4973190;28;20187;-68
2022/01/21 07:13:22;;;;;;;6.70;1.93;;;22.10;99.90;;;;;;4973229;28;20187;-68
2022/01/21 07:15:49;;;;;;;5.90;1.60;;;21.80;99.90;;;;;;4973235;28;20183;-65
2022/01/21 07:18:16;;;;;;;5.17;1.43;;;21.70;99.90;;;;;;4972924;28;20187;-66
2022/01/21 07:20:44;;;;;;;4.93;1.30;;;21.80;99.90;;;;;;4973012;28;20194;-66
2022/01/21 07:23:12;;;;;;;11.70;2.40;;;21.80;99.90;;;;;;4973035;28;20646;-64
2022/01/21 07:25:39;;;;;;;9.90;1.90;;;21.50;99.90;;;;;;4972845;28;20222;-67
2022/01/21 07:28:08;;;;;;;6.13;1.80;;;20.90;99.90;;;;;;4973116;28;20217;-67
2022/01/21 07:30:35;;;;;;;10.47;2.30;;;20.60;99.90;;;;;;4972795;28;20187;-66
2022/01/21 07:33:02;;;;;;;7.27;1.60;;;20.50;99.90;;;;;;4972686;28;20185;-64
2022/01/21 07:35:30;;;;;;;9.50;1.60;;;20.30;99.90;;;;;;4971888;28;20190;-68
2022/01/21 07:37:59;;;;;;;8.90;1.80;;;20.20;99.90;;;;;;4972199;28;20171;-67
2022/01/21 07:40:27;;;;;;;14.20;2.30;;;19.90;99.90;;;;;;4972453;28;20675;-67
2022/01/21 07:42:54;;;;;;;6.50;1.70;;;20.10;99.90;;;;;;4972495;28;20237;-63
2022/01/21 07:45:21;;;;;;;7.50;1.50;;;20.20;99.90;;;;;;4972867;28;20587;-67
2022/01/21 07:47:49;;;;;;;6.23;1.30;;;20.20;99.90;;;;;;4972927;28;20178;-68
2022/01/21 07:50:16;;;;;;;5.50;2.07;;;20.30;99.90;;;;;;4972718;28;20206;-68
2022/01/21 07:52:44;;;;;;;8.73;4.30;;;20.20;99.90;;;;;;4973034;28;20200;-67
2022/01/21 07:55:11;;;;;;;10.57;2.60;;;20.00;99.90;;;;;;4972639;28;20274;-65
2022/01/21 07:57:39;;;;;;;10.57;1.90;;;20.00;99.90;;;;;;4972699;28;20191;-65
2022/01/21 08:00:08;;;;;;;7.63;1.67;;;19.90;99.90;;;;;;4972344;28;20296;-65
2022/01/21 08:02:35;;;;;;;9.77;1.90;;;19.90;99.90;;;;;;4972756;28;20184;-68
2022/01/21 08:05:05;;;;;;;3.70;1.47;;;19.90;99.90;;;;;;4971467;28;20248;-67
2022/01/21 08:07:32;;;;;;;5.23;1.53;;;19.70;99.90;;;;;;4972740;28;20282;-66
2022/01/21 08:10:00;;;;;;;6.53;1.37;;;19.80;99.90;;;;;;4972420;28;20661;-66
2022/01/21 08:12:27;;;;;;;7.03;1.30;;;19.80;99.90;;;;;;4972714;28;20228;-68
2022/01/21 08:14:55;;;;;;;3.83;1.33;;;19.90;99.90;;;;;;4972401;28;20179;-68
2022/01/21 08:17:23;;;;;;;6.83;1.63;;;19.90;99.90;;;;;;4970984;28;20200;-67
2022/01/21 08:19:50;;;;;;;4.70;2.13;;;19.90;99.90;;;;;;4972392;28;20654;-65
2022/01/21 08:22:18;;;;;;;8.33;2.27;;;19.90;99.90;;;;;;4973890;28;20284;-67
2022/01/21 08:24:45;;;;;;;6.10;2.10;;;20.00;99.90;;;;;;4973734;28;20206;-68
2022/01/21 08:27:12;;;;;;;3.50;1.30;;;19.80;99.90;;;;;;4973682;28;20200;-67
2022/01/21 08:29:40;;;;;;;6.20;1.50;;;19.90;99.90;;;;;;4973052;28;20270;-67
2022/01/21 08:32:07;;;;;;;5.87;1.60;;;19.80;99.90;;;;;;4974118;28;20185;-68
2022/01/21 08:34:35;;;;;;;8.30;1.70;;;19.80;99.90;;;;;;4974126;28;20187;-68
2022/01/21 08:37:03;;;;;;;10.67;1.67;;;19.80;99.90;;;;;;4974021;28;20191;-68
2022/01/21 08:39:30;;;;;;;3.87;1.80;;;19.90;99.90;;;;;;4973603;28;20179;-67
2022/01/21 08:41:58;;;;;;;5.70;1.43;;;20.00;99.90;;;;;;4973685;28;20659;-68
2022/01/21 08:44:25;;;;;;;6.60;2.40;;;20.00;99.90;;;;;;4973287;28;20226;-66
2022/01/21 08:46:52;;;;;;;6.53;1.33;;;20.00;99.90;;;;;;4973843;28;20230;-67
2022/01/21 08:49:21;;;;;;;9.33;1.87;;;20.00;99.90;;;;;;4974153;28;20181;-68
2022/01/21 08:51:50;;;;;;;7.60;1.70;;;19.90;99.90;;;;;;4977592;28;20693;-67
2022/01/21 08:54:18;;;;;;;11.60;1.50;;;20.00;99.90;;;;;;4977285;28;20211;-67
2022/01/21 08:56:48;;;;;;;7.53;1.87;;;20.10;99.90;;;;;;4977318;28;20656;-68
2022/01/21 08:59:16;;;;;;;5.93;1.60;;;20.10;99.90;;;;;;4977292;28;20237;-68
2022/01/21 09:01:44;;;;;;;8.53;1.80;;;20.20;99.90;;;;;;4977255;28;20187;-68
2022/01/21 09:04:14;;;;;;;8.97;2.33;;;20.10;99.90;;;;;;4977425;28;20239;-68
2022/01/21 09:06:42;;;;;;;7.27;1.50;;;20.10;99.90;;;;;;4975916;28;20264;-68
2022/01/21 09:09:10;;;;;;;10.97;1.83;;;20.10;99.90;;;;;;4976980;28;20172;-67
2022/01/21 09:11:37;;;;;;;8.33;1.70;;;20.10;99.90;;;;;;4975739;28;20542;-67
2022/01/21 09:14:06;;;;;;;8.30;1.77;;;20.00;99.90;;;;;;4977326;28;20183;-67
2022/01/21 09:16:34;;;;;;;11.50;5.17;;;19.80;99.90;;;;;;4976964;28;20520;-65
2022/01/21 09:19:03;;;;;;;3.83;1.60;;;19.80;99.90;;;;;;4976550;28;20219;-66
2022/01/21 09:21:35;;;;;;;10.50;2.33;;;19.90;99.90;;;;;;4976031;28;20187;-69
2022/01/21 09:24:05;;;;;;;9.53;2.07;;;19.90;99.90;;;;;;4977064;28;20242;-67
2022/01/21 09:26:32;;;;;;;8.83;2.20;;;20.00;99.90;;;;;;4976743;28;20226;-67
2022/01/21 09:29:03;;;;;;;9.20;2.40;;;20.00;99.90;;;;;;4976911;28;20186;-67
2022/01/21 09:31:31;;;;;;;8.00;1.83;;;19.90;99.90;;;;;;4976790;28;20215;-68
2022/01/21 09:33:59;;;;;;;4.80;1.60;;;19.90;99.90;;;;;;4995970;28;20660;-67
2022/01/21 09:36:27;;;;;;;7.30;1.90;;;19.90;99.90;;;;;;4991808;28;20194;-69
2022/01/21 09:38:55;;;;;;;9.17;1.70;;;19.80;99.90;;;;;;4977138;28;20194;-67
2022/01/21 09:41:23;;;;;;;4.67;1.90;;;19.90;99.90;;;;;;4977040;28;20190;-68
2022/01/21 09:43:53;;;;;;;6.43;1.43;;;19.90;99.90;;;;;;4976994;28;20240;-66
2022/01/21 09:46:34;;;;;;;7.20;1.80;;;19.80;99.90;;;;;;4976388;28;20227;-66
2022/01/21 09:49:09;;;;;;;5.03;1.80;;;19.90;99.90;;;;;;4985483;28;20240;-66
2022/01/21 09:51:37;;;;;;;4.90;1.40;;;19.90;99.90;;;;;;4996139;28;20552;-68
2022/01/21 09:54:10;;;;;;;9.90;1.70;;;19.90;99.90;;;;;;4995775;28;20650;-68
2022/01/21 09:56:39;;;;;;;6.87;1.80;;;19.90;99.90;;;;;;4994495;28;20273;-68
2022/01/21 09:59:08;;;;;;;5.47;1.83;;;19.80;99.90;;;;;;4995699;28;20175;-66
2022/01/21 10:01:36;;;;;;;7.23;1.80;;;19.80;99.90;;;;;;4994618;28;20179;-67
2022/01/21 10:04:06;;;;;;;6.33;1.43;;;19.80;99.90;;;;;;4995856;28;20178;-65
2022/01/21 10:06:36;;;;;;;6.97;1.77;;;19.80;99.90;;;;;;4995471;28;20224;-67
2022/01/21 10:09:04;;;;;;;7.47;1.77;;;19.80;99.90;;;;;;4995611;28;20285;-68
2022/01/21 10:11:32;;;;;;;6.13;1.77;;;19.80;99.90;;;;;;4995405;28;20245;-67
2022/01/21 10:13:59;;;;;;;8.17;1.80;;;19.80;99.90;;;;;;4995307;28;20182;-67
2022/01/21 10:16:27;;;;;;;7.63;2.47;;;19.80;99.90;;;;;;4995203;28;20670;-67
2022/01/21 10:19:07;;;;;;;3.83;1.73;;;19.70;99.90;;;;;;4995277;28;20264;-67
2022/01/21 10:21:37;;;;;;;11.13;2.87;;;19.70;99.90;;;;;;4995166;28;20170;-66
2022/01/21 10:24:13;;;;;;;3.63;1.47;;;19.70;99.90;;;;;;4995149;28;20177;-67
2022/01/21 10:26:53;;;;;;;6.37;1.60;;;19.60;99.90;;;;;;4977683;28;20219;-66
2022/01/21 10:29:21;;;;;;;11.00;2.40;;;19.80;99.90;;;;;;4975866;28;20175;-68
2022/01/21 10:32:00;;;;;;;4.53;2.13;;;19.70;99.90;;;;;;4975584;28;20171;-67
2022/01/21 10:34:38;;;;;;;6.17;1.90;;;19.70;99.90;;;;;;4975700;28;20213;-68
2022/01/21 10:37:22;;;;;;;5.87;1.40;;;19.60;99.90;;;;;;4975338;28;20183;-68
2022/01/21 10:40:04;;;;;;;6.40;1.87;;;19.60;99.90;;;;;;4975528;28;20700;-67
2022/01/21 10:42:32;;;;;;;7.50;2.03;;;19.50;99.90;;;;;;4974757;28;20597;-66
2022/01/21 10:45:00;;;;;;;13.50;1.90;;;19.50;99.90;;;;;;4974957;28;20222;-66
2022/01/21 10:47:38;;;;;;;7.57;1.70;;;19.40;99.90;;;;;;4974727;28;20712;-65
2022/01/21 10:50:12;;;;;;;6.93;2.17;;;19.40;99.90;;;;;;4972661;28;20644;-66
2022/01/21 10:52:52;;;;;;;9.70;2.50;;;19.50;99.90;;;;;;4974242;28;20535;-66
2022/01/21 10:55:38;;;;;;;6.37;2.20;;;19.50;99.90;;;;;;4975186;28;20195;-65
2022/01/21 10:58:12;;;;;;;10.13;2.40;;;19.40;99.90;;;;;;4973666;28;20179;-65
2022/01/21 11:01:02;;;;;;;5.10;2.07;;;19.40;99.90;;;;;;4974970;28;20182;-65
2022/01/21 11:03:30;;;;;;;7.30;1.90;;;19.40;99.90;;;;;;4972721;28;20272;-68
2022/01/21 11:06:19;;;;;;;6.43;1.93;;;19.30;99.90;;;;;;4974366;28;20699;-67
2022/01/21 11:08:47;;;;;;;11.10;2.00;;;19.30;99.90;;;;;;4972482;28;20185;-66
2022/01/21 11:11:21;;;;;;;7.30;2.30;;;19.20;99.90;;;;;;4974532;28;20192;-67
2022/01/21 11:13:49;;;;;;;10.73;2.33;;;19.20;99.90;;;;;;4973828;28;20185;-68
2022/01/21 11:16:20;;;;;;;7.97;1.60;;;19.20;99.90;;;;;;4974859;28;20185;-65
2022/01/21 11:18:55;;;;;;;9.97;1.93;;;19.10;99.90;;;;;;4955856;29;20183;-67
2022/01/21 11:21:37;;;;;;;7.43;2.10;;;19.00;99.90;;;;;;4955694;29;20670;-66
2022/01/21 11:24:06;;;;;;;8.87;2.10;;;19.00;99.90;;;;;;4970371;28;20207;-67
2022/01/21 11:26:38;;;;;;;9.17;3.80;;;18.90;99.90;;;;;;4974650;28;20241;-67
2022/01/21 11:29:07;;;;;;;15.73;4.97;;;18.90;99.90;;;;;;4974751;28;20238;-68
2022/01/21 11:31:35;;;;;;;13.53;3.17;;;18.90;99.90;;;;;;4974364;28;20193;-67
2022/01/21 11:34:03;;;;;;;12.47;3.13;;;18.90;99.90;;;;;;4974353;28;20192;-66
2022/01/21 11:36:30;;;;;;;11.40;2.73;;;18.80;99.90;;;;;;4973253;28;20552;-67
2022/01/21 11:38:58;;;;;;;6.93;3.10;;;18.80;99.90;;;;;;4974677;28;20207;-66
2022/01/21 11:41:28;;;;;;;7.73;3.73;;;18.80;99.90;;;;;;4973914;28;20187;-67
2022/01/21 11:44:03;;;;;;;12.67;3.23;;;18.70;99.90;;;;;;4968523;28;20696;-66
2022/01/21 11:49:08;;;;;;;8.23;2.63;;;18.60;99.90;;;;;;4974635;28;20237;-68
2022/01/21 11:51:40;;;;;;;7.07;2.50;;;18.60;99.90;;;;;;4974713;28;20603;-68
2022/01/21 11:54:09;;;;;;;8.80;2.13;;;18.70;99.90;;;;;;4974014;28;20754;-68
2022/01/21 11:56:43;;;;;;;6.13;2.67;;;18.70;99.90;;;;;;4974332;28;20564;-68
2022/01/21 12:02:00;;;;;;;8.63;2.73;;;18.70;99.90;;;;;;4974331;28;20274;-68
2022/01/21 12:04:31;;;;;;;9.20;2.63;;;18.70;99.90;;;;;;4972929;28;20206;-68
2022/01/21 12:07:00;;;;;;;5.43;2.23;;;18.70;99.90;;;;;;4974386;28;20221;-68
2022/01/21 12:09:56;;;;;;;5.87;1.83;;;18.70;99.90;;;;;;4974641;28;20176;-68
2022/01/21 12:12:51;;;;;;;7.70;2.20;;;18.80;99.90;;;;;;4974225;28;20167;-67
2022/01/21 12:15:38;;;;;;;7.10;2.13;;;18.80;99.90;;;;;;4974385;28;20258;-69
2022/01/21 12:18:09;;;;;;;10.30;2.37;;;18.90;99.90;;;;;;4974347;28;20200;-66
2022/01/21 12:20:37;;;;;;;6.37;1.77;;;18.90;99.90;;;;;;4974598;28;20262;-68
2022/01/21 12:23:23;;;;;;;6.10;2.00;;;18.80;99.90;;;;;;4973664;28;20184;-67
2022/01/21 12:26:15;;;;;;;10.00;2.10;;;18.90;99.90;;;;;;4976792;28;20206;-67
2022/01/21 12:28:59;;;;;;;8.30;2.23;;;18.90;99.90;;;;;;4977409;28;20187;-68
2022/01/21 12:31:52;;;;;;;9.10;1.87;;;19.00;99.90;;;;;;4977829;28;20196;-67
2022/01/21 12:34:20;;;;;;;9.47;2.20;;;19.00;99.90;;;;;;4977409;28;20187;-66
2022/01/21 12:36:54;;;;;;;7.60;2.07;;;19.00;99.90;;;;;;4977319;28;20195;-67
2022/01/21 12:39:44;;;;;;;6.90;2.00;;;19.00;99.90;;;;;;4977730;28;20219;-66
2022/01/21 12:42:21;;;;;;;9.13;1.97;;;19.00;99.90;;;;;;4977377;28;20723;-66
2022/01/21 12:44:51;;;;;;;11.13;2.50;;;18.90;99.90;;;;;;4977217;28;20195;-66
2022/01/21 12:47:48;;;;;;;16.87;2.70;;;18.90;99.90;;;;;;4977351;28;20619;-65
2022/01/21 12:50:32;;;;;;;10.17;2.10;;;18.80;99.90;;;;;;4964855;28;20592;-65
2022/01/21 12:58:25;;;;;;;4.80;1.80;;;18.60;99.90;;;;;;4977691;28;20204;-65
2022/01/21 13:01:04;;;;;;;11.17;2.33;;;18.60;99.90;;;;;;4977641;28;20236;-65
2022/01/21 13:04:18;;;;;;;7.07;1.63;;;18.60;99.90;;;;;;4977087;28;20179;-65
2022/01/21 13:06:57;;;;;;;12.80;1.90;;;18.60;99.90;;;;;;4936418;29;20224;-65
2022/01/21 13:10:00;;;;;;;7.80;1.70;;;18.60;99.90;;;;;;4935976;29;20185;-65
2022/01/21 13:15:46;;;;;;;7.93;1.80;;;18.70;99.90;;;;;;4966982;28;20183;-64
2022/01/21 13:18:18;;;;;;;8.20;1.63;;;18.60;99.90;;;;;;4975509;28;20187;-67
2022/01/21 13:20:57;;;;;;;7.53;1.53;;;18.60;99.90;;;;;;4976846;28;20258;-65
2022/01/21 13:23:53;;;;;;;6.20;1.80;;;18.70;99.90;;;;;;4976414;28;20656;-65
2022/01/21 13:26:28;;;;;;;3.63;1.37;;;18.70;99.90;;;;;;4976600;28;20245;-67
2022/01/21 13:29:24;;;;;;;6.07;1.90;;;18.70;99.90;;;;;;4977003;28;20183;-66
2022/01/21 13:31:54;;;;;;;3.83;1.30;;;18.60;99.90;;;;;;4976737;28;20645;-65
2022/01/21 13:34:30;;;;;;;8.60;1.50;;;18.60;99.90;;;;;;4976948;28;20664;-66
2022/01/21 13:37:05;;;;;;;5.50;1.50;;;18.60;99.90;;;;;;4975253;28;20171;-67
2022/01/21 13:39:39;;;;;;;10.80;1.63;;;18.50;99.90;;;;;;4976970;28;20237;-66
2022/01/21 13:42:22;;;;;;;6.40;1.53;;;18.50;99.90;;;;;;4976494;28;20700;-67
2022/01/21 13:44:51;;;;;;;7.33;1.17;;;18.40;99.90;;;;;;4976359;28;20182;-66
2022/01/21 13:47:29;;;;;;;6.30;1.30;;;18.40;99.90;;;;;;4976389;28;20687;-67
2022/01/21 13:50:18;;;;;;;8.97;1.63;;;18.30;99.90;;;;;;4975308;28;20534;-65
2022/01/21 13:52:53;;;;;;;5.70;1.10;;;18.30;99.90;;;;;;4976287;28;20255;-67
2022/01/21 13:55:45;;;;;;;4.20;1.20;;;18.30;99.90;;;;;;4976700;28;20208;-65
2022/01/21 13:58:33;;;;;;;7.50;2.10;;;18.30;99.90;;;;;;4976185;28;20582;-66
2022/01/21 14:01:05;;;;;;;2.57;1.07;;;18.30;99.90;;;;;;4976305;28;20263;-66
2022/01/21 14:03:35;;;;;;;3.97;1.43;;;18.40;99.90;;;;;;4974891;28;20190;-65